createdAt,value
2019-03-12T00:01:33.474Z,100161.00
2019-03-12T00:03:38.658Z,100159.00
2019-03-12T00:05:44.281Z,100161.00
2019-03-12T00:07:50.054Z,100159.00
2019-03-12T00:09:55.224Z,100156.00
2019-03-12T00:12:00.206Z,100161.00
2019-03-12T00:14:05.347Z,100150.00
2019-03-12T00:16:10.345Z,100159.00
2019-03-12T00:18:15.627Z,100161.00
2019-03-12T00:20:21.400Z,100163.00
2019-03-12T00:22:26.556Z,100148.00
2019-03-12T00:24:31.993Z,100158.00
2019-03-12T00:26:37.577Z,100151.00
2019-03-12T00:28:42.745Z,100152.00
2019-03-12T00:30:47.984Z,100151.00
2019-03-12T00:32:55.756Z,100158.00
2019-03-12T00:35:00.590Z,100153.00
2019-03-12T00:37:05.800Z,100164.00
2019-03-12T00:39:10.746Z,100161.00
2019-03-12T00:41:15.618Z,100165.00
2019-03-12T00:43:21.265Z,100171.00
2019-03-12T00:45:26.411Z,100187.00
2019-03-12T00:47:31.240Z,100177.00
2019-03-12T00:49:36.752Z,100195.00
2019-03-12T00:51:41.871Z,100189.00
2019-03-12T00:53:47.320Z,100200.00
2019-03-12T00:55:52.592Z,100207.00
2019-03-12T00:57:58.061Z,100197.00
2019-03-12T01:00:03.458Z,100193.00
2019-03-12T01:02:08.767Z,100194.00
2019-03-12T01:04:14.235Z,100182.00
2019-03-12T01:06:19.477Z,100186.00
2019-03-12T01:08:25.026Z,100189.00
2019-03-12T01:10:30.413Z,100183.00
2019-03-12T01:12:35.961Z,100176.00
2019-03-12T01:14:40.898Z,100165.00
2019-03-12T01:16:45.919Z,100165.00
2019-03-12T01:18:50.850Z,100160.00
2019-03-12T01:20:56.063Z,100147.00
2019-03-12T01:23:00.907Z,100153.00
2019-03-12T01:25:08.631Z,100157.00
2019-03-12T01:27:13.495Z,100154.00
2019-03-12T01:29:18.429Z,100151.00
2019-03-12T01:31:23.744Z,100149.00
2019-03-12T01:33:28.928Z,100158.00
2019-03-12T01:35:33.949Z,100148.00
2019-03-12T01:37:38.945Z,100157.00
2019-03-12T01:39:44.607Z,100156.00
2019-03-12T01:41:50.369Z,100146.00
2019-03-12T01:43:55.818Z,100149.00
2019-03-12T01:46:00.760Z,100155.00
2019-03-12T01:48:05.844Z,100137.00
2019-03-12T01:50:11.434Z,100139.00
2019-03-12T01:52:16.339Z,100135.00
2019-03-12T01:54:21.222Z,100135.00
2019-03-12T01:56:26.437Z,100134.00
2019-03-12T01:58:31.896Z,100133.00
2019-03-12T02:00:45.910Z,100117.00
2019-03-12T02:02:53.389Z,100113.00
2019-03-12T02:05:01.261Z,100123.00
2019-03-12T02:07:08.941Z,100116.00
2019-03-12T02:09:15.924Z,100110.00
2019-03-12T02:11:21.034Z,100116.00
2019-03-12T02:13:26.726Z,100108.00
2019-03-12T02:15:31.959Z,100107.00
2019-03-12T02:17:37.373Z,100113.00
2019-03-12T02:19:42.268Z,100102.00
2019-03-12T02:21:48.326Z,100105.00
2019-03-12T02:23:53.765Z,100107.00
2019-03-12T02:25:59.040Z,100093.00
2019-03-12T02:28:04.036Z,100090.00
2019-03-12T02:30:12.439Z,100085.00
2019-03-12T02:32:17.634Z,100090.00
2019-03-12T02:34:23.386Z,100095.00
2019-03-12T02:36:28.994Z,100073.00
2019-03-12T02:38:34.479Z,100060.00
2019-03-12T02:40:39.439Z,100074.00
2019-03-12T02:42:44.736Z,100059.00
2019-03-12T02:44:49.770Z,100064.00
2019-03-12T02:46:55.102Z,100065.00
2019-03-12T02:49:00.765Z,100070.00
2019-03-12T02:51:06.518Z,100069.00
2019-03-12T02:53:11.729Z,100083.00
2019-03-12T02:55:16.943Z,100079.00
2019-03-12T02:57:22.585Z,100062.00
2019-03-12T02:59:27.713Z,100064.00
2019-03-12T03:01:37.808Z,100058.00
2019-03-12T03:03:43.319Z,100053.00
2019-03-12T03:06:10.080Z,100043.00
2019-03-12T03:08:15.645Z,100045.00
2019-03-12T03:10:20.585Z,100048.00
2019-03-12T03:12:25.482Z,100058.00
2019-03-12T03:14:40.770Z,100047.00
2019-03-12T03:16:46.041Z,100040.00
2019-03-12T03:18:50.952Z,100046.00
2019-03-12T03:20:55.819Z,100053.00
2019-03-12T03:23:01.178Z,100052.00
2019-03-12T03:25:08.360Z,100046.00
2019-03-12T03:27:13.322Z,100056.00
2019-03-12T03:29:18.897Z,100058.00
2019-03-12T03:31:24.138Z,100062.00
2019-03-12T03:33:29.132Z,100058.00
2019-03-12T03:35:33.966Z,100049.00
2019-03-12T03:37:39.582Z,100048.00
2019-03-12T03:39:44.741Z,100046.00
2019-03-12T03:41:50.308Z,100042.00
2019-03-12T03:43:55.645Z,100037.00
2019-03-12T03:46:00.977Z,100050.00
2019-03-12T03:48:06.057Z,100040.00
2019-03-12T03:50:11.368Z,100049.00
2019-03-12T03:52:16.245Z,100039.00
2019-03-12T03:54:21.271Z,100007.00
2019-03-12T03:56:26.203Z,100036.00
2019-03-12T03:58:31.752Z,100038.00
2019-03-12T04:00:36.638Z,100027.00
2019-03-12T04:02:41.502Z,100030.00
2019-03-12T04:04:46.348Z,100031.00
2019-03-12T04:06:51.829Z,100023.00
2019-03-12T04:08:57.043Z,100026.00
2019-03-12T04:11:01.910Z,100028.00
2019-03-12T04:13:07.202Z,100026.00
2019-03-12T04:15:12.707Z,100019.00
2019-03-12T04:17:17.526Z,100013.00
2019-03-12T04:19:22.765Z,100010.00
2019-03-12T04:21:27.670Z,100011.00
2019-03-12T04:23:32.622Z,100002.00
2019-03-12T04:25:37.735Z,99994.00
2019-03-12T04:27:43.086Z,99991.00
2019-03-12T04:29:47.945Z,100001.00
2019-03-12T04:31:52.917Z,99990.00
2019-03-12T04:34:29.939Z,99985.00
2019-03-12T04:36:54.054Z,99988.00
2019-03-12T04:38:58.978Z,99986.00
2019-03-12T04:41:03.904Z,99980.00
2019-03-12T04:43:08.747Z,99978.00
2019-03-12T04:45:15.671Z,99972.00
2019-03-12T04:47:59.127Z,99972.00
2019-03-12T04:50:04.489Z,99968.00
2019-03-12T04:52:09.431Z,99969.00
2019-03-12T04:54:14.330Z,99965.00
2019-03-12T04:56:19.803Z,99969.00
2019-03-12T04:58:25.770Z,99963.00
2019-03-12T05:00:31.101Z,99957.00
2019-03-12T05:02:35.943Z,99955.00
2019-03-12T05:04:41.227Z,99946.00
2019-03-12T05:06:46.389Z,99959.00
2019-03-12T05:08:51.677Z,99953.00
2019-03-12T05:10:56.891Z,99952.00
2019-03-12T05:13:01.741Z,99950.00
2019-03-12T05:15:10.203Z,99937.00
2019-03-12T05:17:25.829Z,99946.00
2019-03-12T05:19:30.930Z,99938.00
2019-03-12T05:21:36.068Z,99933.00
2019-03-12T05:23:41.638Z,99935.00
2019-03-12T05:25:46.477Z,99936.00
2019-03-12T05:27:51.655Z,99931.00
2019-03-12T05:29:57.064Z,99929.00
2019-03-12T05:32:01.913Z,99928.00
2019-03-12T05:34:07.017Z,99929.00
2019-03-12T05:36:12.149Z,99933.00
2019-03-12T05:38:17.438Z,99926.00
2019-03-12T05:40:22.274Z,99920.00
2019-03-12T05:42:27.736Z,99920.00
2019-03-12T05:44:33.254Z,99924.00
2019-03-12T05:46:40.071Z,99913.00
2019-03-12T05:48:45.039Z,99914.00
2019-03-12T05:50:53.941Z,99915.00
2019-03-12T05:53:14.421Z,99911.00
2019-03-12T05:55:19.477Z,99905.00
2019-03-12T05:57:24.766Z,99901.00
2019-03-12T05:59:30.003Z,99859.00
2019-03-12T06:01:35.128Z,99891.00
2019-03-12T06:03:40.519Z,99892.00
2019-03-12T06:05:45.665Z,99884.00
2019-03-12T06:07:50.825Z,99884.00
2019-03-12T06:09:56.498Z,99876.00
2019-03-12T06:12:02.537Z,99875.00
2019-03-12T06:16:16.815Z,99861.00
2019-03-12T06:18:22.581Z,99857.00
2019-03-12T06:20:28.214Z,99866.00
2019-03-12T06:22:33.555Z,99858.00
2019-03-12T06:24:38.918Z,99866.00
2019-03-12T06:26:43.855Z,99857.00
2019-03-12T06:28:49.025Z,99852.00
2019-03-12T06:31:11.858Z,99847.00
2019-03-12T06:33:24.298Z,99849.00
2019-03-12T06:35:33.486Z,99844.00
2019-03-12T06:37:47.490Z,99845.00
2019-03-12T06:40:23.995Z,99836.00
2019-03-12T06:42:54.803Z,99838.00
2019-03-12T06:45:07.314Z,99827.00
2019-03-12T06:47:37.640Z,99826.00
2019-03-12T06:49:48.199Z,99823.00
2019-03-12T06:52:12.820Z,99818.00
2019-03-12T06:54:27.787Z,99812.00
2019-03-12T06:56:58.129Z,99802.00
2019-03-12T06:59:25.074Z,99792.00
2019-03-12T07:01:42.396Z,99790.00
2019-03-12T07:04:05.168Z,99795.00
2019-03-12T07:06:28.192Z,99789.00
2019-03-12T07:08:49.446Z,99787.00
2019-03-12T07:11:03.864Z,99776.00
2019-03-12T07:13:27.059Z,99775.00
2019-03-12T07:15:40.821Z,99767.00
2019-03-12T07:18:00.474Z,99772.00
2019-03-12T07:20:27.063Z,99762.00
2019-03-12T07:22:54.000Z,99756.00
2019-03-12T07:25:04.365Z,99746.00
2019-03-12T07:27:30.036Z,99742.00
2019-03-12T07:29:49.615Z,99750.00
2019-03-12T07:32:14.083Z,99734.00
2019-03-12T07:34:37.039Z,99741.00
2019-03-12T07:36:53.271Z,99725.00
2019-03-12T07:39:05.932Z,99725.00
2019-03-12T07:41:35.782Z,99717.00
2019-03-12T07:44:03.216Z,99712.00
2019-03-12T07:46:30.278Z,99711.00
2019-03-12T07:48:54.496Z,99714.00
2019-03-12T07:51:12.942Z,99698.00
2019-03-12T07:53:29.250Z,99686.00
2019-03-12T07:56:05.413Z,99691.00
2019-03-12T07:58:36.237Z,99695.00
2019-03-12T08:01:03.288Z,99694.00
2019-03-12T08:03:19.460Z,99680.00
2019-03-12T08:05:39.145Z,99676.00
2019-03-12T08:08:09.352Z,99677.00
2019-03-12T08:10:26.114Z,99663.00
2019-03-12T08:12:40.524Z,99653.00
2019-03-12T08:15:02.759Z,99648.00
2019-03-12T08:17:25.910Z,99652.00
2019-03-12T08:19:44.175Z,99653.00
2019-03-12T08:22:14.095Z,99659.00
2019-03-12T08:24:38.027Z,99642.00
2019-03-12T08:26:53.117Z,99632.00
2019-03-12T08:29:04.001Z,99657.00
2019-03-12T08:31:26.150Z,99645.00
2019-03-12T08:33:50.755Z,99622.00
2019-03-12T08:36:20.755Z,99618.00
2019-03-12T08:38:41.961Z,99614.00
2019-03-12T08:40:57.438Z,99618.00
2019-03-12T08:43:07.608Z,99614.00
2019-03-12T08:45:49.924Z,99611.00
2019-03-12T08:48:02.373Z,99607.00
2019-03-12T08:50:16.595Z,99610.00
2019-03-12T08:52:43.230Z,99588.00
2019-03-12T08:55:25.613Z,99595.00
2019-03-12T08:57:41.355Z,99589.00
2019-03-12T09:00:11.625Z,99576.00
2019-03-12T09:02:41.920Z,99580.00
2019-03-12T09:05:09.474Z,99572.00
2019-03-12T09:07:46.036Z,99554.00
2019-03-12T09:09:57.034Z,99560.00
2019-03-12T09:12:19.609Z,99543.00
2019-03-12T09:14:42.674Z,99546.00
2019-03-12T09:17:05.320Z,99541.00
2019-03-12T09:19:29.567Z,99539.00
2019-03-12T09:21:52.283Z,99537.00
2019-03-12T09:24:08.965Z,99514.00
2019-03-12T09:26:39.253Z,99520.00
2019-03-12T09:29:03.770Z,99513.00
2019-03-12T09:31:24.294Z,99500.00
2019-03-12T09:33:48.158Z,99491.00
2019-03-12T09:36:15.279Z,99482.00
2019-03-12T09:38:28.545Z,99472.00
2019-03-12T09:40:51.279Z,99468.00
2019-03-12T09:43:14.130Z,99463.00
2019-03-12T09:45:41.557Z,99455.00
2019-03-12T09:47:53.293Z,99447.00
2019-03-12T09:50:15.186Z,99438.00
2019-03-12T09:52:39.393Z,99432.00
2019-03-12T09:55:04.994Z,99424.00
2019-03-12T09:57:15.839Z,99423.00
2019-03-12T09:59:40.413Z,99404.00
2019-03-12T10:02:04.619Z,99403.00
2019-03-12T10:04:26.001Z,99395.00
2019-03-12T10:06:43.604Z,99390.00
2019-03-12T10:09:19.790Z,99385.00
2019-03-12T10:11:41.815Z,99367.00
2019-03-12T10:14:11.611Z,99366.00
2019-03-12T10:16:34.694Z,99361.00
2019-03-12T10:19:03.522Z,99358.00
2019-03-12T10:21:29.077Z,99353.00
2019-03-12T10:23:45.158Z,99340.00
2019-03-12T10:26:09.107Z,99344.00
2019-03-12T10:28:32.204Z,99336.00
2019-03-12T10:30:58.181Z,99313.00
2019-03-12T10:33:13.245Z,99332.00
2019-03-12T10:35:28.087Z,99319.00
2019-03-12T10:37:55.162Z,99308.00
2019-03-12T10:40:14.885Z,99294.00
2019-03-12T10:42:31.944Z,99292.00
2019-03-12T10:44:47.016Z,99290.00
2019-03-12T10:46:58.709Z,99295.00
2019-03-12T10:49:04.022Z,99289.00
2019-03-12T10:51:09.476Z,99279.00
2019-03-12T10:53:14.923Z,99258.00
2019-03-12T10:55:20.138Z,99260.00
2019-03-12T10:57:25.669Z,99246.00
2019-03-12T10:59:31.107Z,99252.00
2019-03-12T11:01:37.204Z,99248.00
2019-03-12T11:03:42.084Z,99238.00
2019-03-12T11:05:47.468Z,99235.00
2019-03-12T11:07:53.203Z,99231.00
2019-03-12T11:09:58.147Z,99234.00
2019-03-12T11:12:03.274Z,99221.00
2019-03-12T11:14:08.713Z,99218.00
2019-03-12T11:16:13.734Z,99199.00
2019-03-12T11:18:18.606Z,99202.00
2019-03-12T11:20:23.714Z,99197.00
2019-03-12T11:22:28.720Z,99195.00
2019-03-12T11:24:33.613Z,99194.00
2019-03-12T11:26:38.573Z,99188.00
2019-03-12T11:28:43.863Z,99186.00
2019-03-12T11:30:49.202Z,99189.00
2019-03-12T11:32:54.482Z,99177.00
2019-03-12T11:34:59.460Z,99192.00
2019-03-12T11:37:04.598Z,99182.00
2019-03-12T11:39:10.165Z,99170.00
2019-03-12T11:41:15.156Z,99166.00
2019-03-12T11:43:20.420Z,99153.00
2019-03-12T11:45:36.125Z,99144.00
2019-03-12T11:47:32.717Z,99144.00
2019-03-12T11:49:38.295Z,99127.00
2019-03-12T11:51:43.635Z,99130.00
2019-03-12T11:53:48.875Z,99124.00
2019-03-12T11:55:54.306Z,99113.00
2019-03-12T11:57:59.567Z,99115.00
2019-03-12T12:00:06.408Z,99102.00
2019-03-12T12:02:11.847Z,99095.00
2019-03-12T12:04:17.072Z,99081.00
2019-03-12T12:06:22.836Z,99083.00
2019-03-12T12:08:27.777Z,99075.00
2019-03-12T12:10:32.983Z,99073.00
2019-03-12T12:12:40.197Z,99057.00
2019-03-12T12:14:44.705Z,99048.00
2019-03-12T12:16:49.943Z,99044.00
2019-03-12T12:18:55.131Z,99043.00
2019-03-12T12:21:00.100Z,99036.00
2019-03-12T12:23:05.668Z,99037.00
2019-03-12T12:25:12.318Z,99013.00
2019-03-12T12:27:17.191Z,98999.00
2019-03-12T12:29:22.320Z,99005.00
2019-03-12T12:31:27.674Z,98991.00
2019-03-12T12:33:32.917Z,98988.00
2019-03-12T12:35:37.902Z,98972.00
2019-03-12T12:37:43.103Z,98973.00
2019-03-12T12:39:48.554Z,98969.00
2019-03-12T12:41:54.064Z,98952.00
2019-03-12T12:43:59.311Z,98959.00
2019-03-12T12:46:04.236Z,98955.00
2019-03-12T12:48:09.666Z,98952.00
2019-03-12T12:50:15.785Z,98950.00
2019-03-12T12:52:21.157Z,98935.00
2019-03-12T12:54:26.609Z,98936.00
2019-03-12T12:56:32.157Z,98924.00
2019-03-12T12:58:37.740Z,98914.00
2019-03-12T13:00:43.387Z,98912.00
2019-03-12T13:02:48.961Z,98909.00
2019-03-12T13:04:54.126Z,98884.00
2019-03-12T13:06:59.104Z,98911.00
2019-03-12T13:09:05.712Z,98891.00
2019-03-12T13:11:10.766Z,98889.00
2019-03-12T13:13:16.053Z,98904.00
2019-03-12T13:15:21.144Z,98891.00
2019-03-12T13:17:26.151Z,98880.00
2019-03-12T13:19:31.222Z,98857.00
2019-03-12T13:21:36.145Z,98861.00
2019-03-12T13:23:41.099Z,98857.00
2019-03-12T13:25:45.980Z,98850.00
2019-03-12T13:27:51.071Z,98838.00
2019-03-12T13:29:56.763Z,98844.00
2019-03-12T13:32:13.079Z,98822.00
2019-03-12T13:34:08.357Z,98817.00
2019-03-12T13:36:16.617Z,98805.00
2019-03-12T13:38:21.973Z,98802.00
2019-03-12T13:40:27.767Z,98804.00
2019-03-12T13:42:33.386Z,98805.00
2019-03-12T13:44:38.482Z,98787.00
2019-03-12T13:46:43.535Z,98795.00
2019-03-12T13:48:48.477Z,98778.00
2019-03-12T13:50:53.635Z,98775.00
2019-03-12T13:52:58.806Z,98770.00
2019-03-12T13:55:04.312Z,98760.00
2019-03-12T13:57:09.630Z,98751.00
2019-03-12T13:59:14.786Z,98746.00
2019-03-12T14:01:19.854Z,98733.00
2019-03-12T14:03:25.110Z,98722.00
2019-03-12T14:05:30.344Z,98718.00
2019-03-12T14:07:35.987Z,98720.00
2019-03-12T14:09:40.987Z,98703.00
2019-03-12T14:11:47.809Z,98710.00
2019-03-12T14:13:53.392Z,98694.00
2019-03-12T14:15:59.381Z,98686.00
2019-03-12T14:18:05.305Z,98678.00
2019-03-12T14:20:40.386Z,98673.00
2019-03-12T14:22:50.124Z,98660.00
2019-03-12T14:24:59.394Z,98663.00
2019-03-12T14:27:04.762Z,98656.00
2019-03-12T14:29:09.907Z,98657.00
2019-03-12T14:31:15.564Z,98652.00
2019-03-12T14:33:21.281Z,98646.00
2019-03-12T14:35:26.225Z,98638.00
2019-03-12T14:37:31.258Z,98634.00
2019-03-12T14:39:36.706Z,98633.00
2019-03-12T14:41:42.076Z,98627.00
2019-03-12T14:43:47.808Z,98627.00
2019-03-12T14:45:53.505Z,98621.00
2019-03-12T14:47:59.041Z,98603.00
2019-03-12T14:50:04.920Z,98604.00
2019-03-12T14:52:24.725Z,98594.00
2019-03-12T14:54:33.662Z,98586.00
2019-03-12T14:56:39.113Z,98562.00
2019-03-12T14:58:44.155Z,98570.00
2019-03-12T15:00:49.193Z,98556.00
2019-03-12T15:02:55.074Z,98551.00
2019-03-12T15:05:00.125Z,98535.00
2019-03-12T15:07:05.815Z,98540.00
2019-03-12T15:09:14.328Z,98530.00
2019-03-12T15:11:19.270Z,98524.00
2019-03-12T15:13:24.270Z,98515.00
2019-03-12T15:15:29.202Z,98505.00
2019-03-12T15:17:35.179Z,98500.00
2019-03-12T15:19:40.602Z,98493.00
2019-03-12T15:21:45.712Z,98494.00
2019-03-12T15:23:51.417Z,98487.00
2019-03-12T15:25:56.764Z,98482.00
2019-03-12T15:28:01.971Z,98483.00
2019-03-12T15:30:12.138Z,98482.00
2019-03-12T15:32:17.075Z,98459.00
2019-03-12T15:34:22.186Z,98448.00
2019-03-12T15:36:27.643Z,98462.00
2019-03-12T15:38:33.408Z,98444.00
2019-03-12T15:40:38.977Z,98440.00
2019-03-12T15:42:43.986Z,98434.00
2019-03-12T15:44:49.706Z,98423.00
2019-03-12T15:46:54.687Z,98426.00
2019-03-12T15:48:59.589Z,98409.00
2019-03-12T15:51:04.695Z,98417.00
2019-03-12T15:53:10.007Z,98403.00
2019-03-12T15:55:15.007Z,98386.00
2019-03-12T15:57:19.865Z,98390.00
2019-03-12T15:59:24.967Z,98384.00
2019-03-12T16:01:29.840Z,98368.00
2019-03-12T16:03:35.045Z,98372.00
2019-03-12T16:05:40.031Z,98357.00
2019-03-12T16:07:45.843Z,98345.00
2019-03-12T16:09:50.700Z,98330.00
2019-03-12T16:11:56.690Z,98330.00
2019-03-12T16:14:01.570Z,98315.00
2019-03-12T16:16:06.826Z,98316.00
2019-03-12T16:18:14.454Z,98316.00
2019-03-12T16:20:18.707Z,98305.00
2019-03-12T16:22:24.306Z,98299.00
2019-03-12T16:24:29.304Z,98295.00
2019-03-12T16:26:34.424Z,98287.00
2019-03-12T16:28:40.410Z,98270.00
2019-03-12T16:30:46.076Z,98280.00
2019-03-12T16:32:51.302Z,98267.00
2019-03-12T16:34:56.790Z,98269.00
2019-03-12T16:37:02.013Z,98255.00
2019-03-12T16:39:08.221Z,98248.00
2019-03-12T16:41:13.552Z,98253.00
2019-03-12T16:43:21.988Z,98238.00
2019-03-12T16:45:25.887Z,98237.00
2019-03-12T16:47:31.196Z,98226.00
2019-03-12T16:49:36.157Z,98230.00
2019-03-12T16:51:41.773Z,98223.00
2019-03-12T16:53:47.340Z,98201.00
2019-03-12T16:55:52.892Z,98189.00
2019-03-12T16:57:58.111Z,98197.00
2019-03-12T17:00:08.219Z,98188.00
2019-03-12T17:02:10.134Z,98190.00
2019-03-12T17:04:15.793Z,98181.00
2019-03-12T17:06:21.151Z,98173.00
2019-03-12T17:08:26.468Z,98154.00
2019-03-12T17:10:31.703Z,98168.00
2019-03-12T17:12:36.661Z,98159.00
2019-03-12T17:14:41.852Z,98141.00
2019-03-12T17:16:50.309Z,98144.00
2019-03-12T17:18:55.284Z,98138.00
2019-03-12T17:21:00.580Z,98148.00
2019-03-12T17:23:05.483Z,98151.00
2019-03-12T17:25:11.144Z,98150.00
2019-03-12T17:27:16.136Z,98136.00
2019-03-12T17:29:21.914Z,98140.00
2019-03-12T17:31:27.162Z,98145.00
2019-03-12T17:33:32.101Z,98142.00
2019-03-12T17:35:37.128Z,98136.00
2019-03-12T17:37:42.241Z,98124.00
2019-03-12T17:39:47.898Z,98117.00
2019-03-12T17:41:55.004Z,98109.00
2019-03-12T17:43:59.899Z,98109.00
2019-03-12T17:46:05.293Z,98109.00
2019-03-12T17:48:10.926Z,98103.00
2019-03-12T17:50:16.247Z,98090.00
2019-03-12T17:52:21.891Z,98079.00
2019-03-12T17:54:27.132Z,98070.00
2019-03-12T17:56:32.843Z,98073.00
2019-03-12T17:58:38.132Z,98064.00
2019-03-12T18:00:44.320Z,98060.00
2019-03-12T18:02:49.290Z,98053.00
2019-03-12T18:04:54.687Z,98052.00
2019-03-12T18:07:00.209Z,98041.00
2019-03-12T18:09:08.758Z,98041.00
2019-03-12T18:11:14.055Z,98035.00
2019-03-12T18:13:19.547Z,98028.00
2019-03-12T18:15:25.366Z,98022.00
2019-03-12T18:17:30.630Z,98030.00
2019-03-12T18:19:35.935Z,98033.00
2019-03-12T18:21:41.209Z,98016.00
2019-03-12T18:23:46.499Z,98021.00
2019-03-12T18:25:51.631Z,98012.00
2019-03-12T18:27:56.736Z,98006.00
2019-03-12T18:30:01.960Z,97989.00
2019-03-12T18:32:07.776Z,97994.00
2019-03-12T18:34:15.943Z,97984.00
2019-03-12T18:36:21.095Z,97983.00
2019-03-12T18:38:26.157Z,97987.00
2019-03-12T18:40:31.355Z,97967.00
2019-03-12T18:42:36.568Z,97962.00
2019-03-12T18:44:41.863Z,97958.00
2019-03-12T18:46:46.717Z,97943.00
2019-03-12T18:48:52.103Z,97932.00
2019-03-12T18:50:57.415Z,97927.00
2019-03-12T18:53:02.998Z,97917.00
2019-03-12T18:55:09.619Z,97917.00
2019-03-12T18:57:14.647Z,97941.00
2019-03-12T18:59:19.875Z,97935.00
2019-03-12T19:01:24.780Z,97922.00
2019-03-12T19:03:29.995Z,97919.00
2019-03-12T19:05:35.141Z,97930.00
2019-03-12T19:07:40.414Z,97922.00
2019-03-12T19:09:45.966Z,97912.00
2019-03-12T19:11:51.231Z,97914.00
2019-03-12T19:13:56.502Z,97908.00
2019-03-12T19:16:02.128Z,97894.00
2019-03-12T19:18:08.362Z,97896.00
2019-03-12T19:20:13.690Z,97891.00
2019-03-12T19:22:19.032Z,97875.00
2019-03-12T19:24:24.496Z,97885.00
2019-03-12T19:26:29.942Z,97875.00
2019-03-12T19:28:34.973Z,97871.00
2019-03-12T19:30:41.477Z,97872.00
2019-03-12T19:32:56.375Z,97863.00
2019-03-12T19:35:01.610Z,97862.00
2019-03-12T19:37:07.225Z,97869.00
2019-03-12T19:39:14.170Z,97857.00
2019-03-12T19:41:19.426Z,97873.00
2019-03-12T19:43:25.017Z,97870.00
2019-03-12T19:45:30.501Z,97874.00
2019-03-12T19:47:35.625Z,97877.00
2019-03-12T19:49:41.010Z,97887.00
2019-03-12T19:51:46.417Z,97905.00
2019-03-12T19:53:51.776Z,97919.00
2019-03-12T19:55:56.833Z,97877.00
2019-03-12T19:58:12.607Z,97892.00
2019-03-12T20:00:20.069Z,97882.00
2019-03-12T20:02:25.643Z,97876.00
2019-03-12T20:04:30.685Z,97888.00
2019-03-12T20:06:36.493Z,97869.00
2019-03-12T20:08:41.802Z,97861.00
2019-03-12T20:12:08.895Z,97866.00
2019-03-12T20:15:16.665Z,97834.00
2019-03-12T20:18:17.188Z,97834.00
2019-03-12T20:24:01.433Z,97812.00
2019-03-12T20:27:09.872Z,97801.00
2019-03-12T20:30:16.977Z,97800.00
2019-03-12T20:33:58.846Z,97792.00
2019-03-12T20:36:57.335Z,97800.00
2019-03-12T20:39:56.660Z,97802.00
2019-03-12T20:42:53.343Z,97815.00
2019-03-12T20:45:40.663Z,97820.00
2019-03-12T20:48:40.113Z,97820.00
2019-03-12T20:52:01.010Z,97816.00
2019-03-12T20:55:14.690Z,97803.00
2019-03-12T20:58:20.851Z,97795.00
2019-03-12T21:01:43.023Z,97784.00
2019-03-12T21:04:50.162Z,97771.00
2019-03-12T21:08:00.402Z,97754.00
2019-03-12T21:11:12.939Z,97769.00
2019-03-12T21:14:27.326Z,97759.00
2019-03-12T21:17:23.454Z,97772.00
2019-03-12T21:20:33.096Z,97755.00
2019-03-12T21:23:22.403Z,97768.00
2019-03-12T21:26:10.055Z,97777.00
2019-03-12T21:28:54.052Z,97782.00
2019-03-12T21:30:59.856Z,97786.00
2019-03-12T21:33:14.779Z,97785.00
2019-03-12T21:35:11.998Z,97812.00
2019-03-12T21:37:17.276Z,97819.00
2019-03-12T21:39:22.351Z,97813.00
2019-03-12T21:41:27.384Z,97844.00
2019-03-12T21:43:33.425Z,97856.00
2019-03-12T21:45:39.012Z,97876.00
2019-03-12T21:47:44.363Z,97891.00
2019-03-12T21:49:49.813Z,97901.00
2019-03-12T21:51:55.392Z,97948.00
2019-03-12T21:54:00.413Z,97972.00
2019-03-12T21:56:05.495Z,97992.00
2019-03-12T21:58:10.628Z,98005.00
2019-03-12T22:00:16.518Z,98002.00
2019-03-12T22:02:21.966Z,98014.00
2019-03-12T22:04:27.082Z,98016.00
2019-03-12T22:06:32.480Z,98028.00
2019-03-12T22:08:37.674Z,98046.00
2019-03-12T22:10:42.646Z,98048.00
2019-03-12T22:12:47.590Z,98066.00
2019-03-12T22:14:52.574Z,98060.00
2019-03-12T22:17:00.946Z,98068.00
2019-03-12T22:19:06.380Z,98065.00
2019-03-12T22:21:13.059Z,98072.00
2019-03-12T22:23:31.635Z,98086.00
2019-03-12T22:25:36.504Z,98097.00
2019-03-12T22:27:41.798Z,98106.00
2019-03-12T22:29:47.402Z,98106.00
2019-03-12T22:31:52.292Z,98108.00
2019-03-12T22:33:57.204Z,98116.00
2019-03-12T22:36:02.797Z,98118.00
2019-03-12T22:38:08.875Z,98121.00
2019-03-12T22:40:13.941Z,98131.00
2019-03-12T22:42:19.430Z,98122.00
2019-03-12T22:44:24.581Z,98142.00
2019-03-12T22:46:29.863Z,98132.00
2019-03-12T22:48:35.447Z,98130.00
2019-03-12T22:50:40.651Z,98144.00
2019-03-12T22:52:45.806Z,98149.00
2019-03-12T22:54:51.036Z,98154.00
2019-03-12T22:56:56.433Z,98158.00
2019-03-12T22:59:01.368Z,98144.00
2019-03-12T23:01:06.749Z,98148.00
2019-03-12T23:03:11.809Z,98152.00
2019-03-12T23:05:17.085Z,98156.00
2019-03-12T23:07:21.982Z,98156.00
2019-03-12T23:09:27.460Z,98165.00
2019-03-12T23:11:32.396Z,98161.00
2019-03-12T23:13:37.654Z,98164.00
2019-03-12T23:15:43.040Z,98179.00
2019-03-12T23:17:48.095Z,98179.00
2019-03-12T23:19:53.043Z,98189.00
2019-03-12T23:21:58.529Z,98190.00
2019-03-12T23:24:03.672Z,98198.00
2019-03-12T23:26:09.205Z,98208.00
2019-03-12T23:28:14.433Z,98204.00
2019-03-12T23:30:19.506Z,98211.00
2019-03-12T23:32:24.948Z,98206.00
2019-03-12T23:34:29.993Z,98211.00
2019-03-12T23:36:34.916Z,98224.00
2019-03-12T23:38:39.933Z,98215.00
2019-03-12T23:40:44.934Z,98217.00
2019-03-12T23:42:50.091Z,98225.00
2019-03-12T23:44:55.165Z,98223.00
2019-03-12T23:47:00.612Z,98226.00
2019-03-12T23:49:05.461Z,98223.00
2019-03-12T23:51:11.026Z,98228.00
2019-03-12T23:53:15.992Z,98226.00
2019-03-12T23:55:21.542Z,98233.00
2019-03-12T23:57:26.940Z,98235.00
2019-03-12T23:59:32.157Z,98235.00
